sensor_id;sensor_type;location;lat;lon;timestamp;P1;durP1;ratioP1;P2;durP2;ratioP2
60722;SDS011;46574;52.818;6.516;2023-02-18T00:01:25;9.98;;;2.95;;
60722;SDS011;46574;52.818;6.516;2023-02-18T00:03:54;13.38;;;3.08;;
60722;SDS011;46574;52.818;6.516;2023-02-18T00:06:22;12.27;;;2.83;;
60722;SDS011;46574;52.818;6.516;2023-02-18T00:08:49;8.93;;;2.80;;
60722;SDS011;46574;52.818;6.516;2023-02-18T00:11:16;8.80;;;2.95;;
60722;SDS011;46574;52.818;6.516;2023-02-18T00:13:48;9.68;;;2.65;;
60722;SDS011;46574;52.818;6.516;2023-02-18T00:16:15;9.95;;;2.83;;
60722;SDS011;46574;52.818;6.516;2023-02-18T00:18:40;11.75;;;3.95;;
60722;SDS011;46574;52.818;6.516;2023-02-18T00:21:06;11.02;;;3.00;;
60722;SDS011;46574;52.818;6.516;2023-02-18T00:23:33;8.63;;;3.00;;
60722;SDS011;46574;52.818;6.516;2023-02-18T00:26:00;9.48;;;3.00;;
60722;SDS011;46574;52.818;6.516;2023-02-18T00:28:25;9.80;;;3.30;;
60722;SDS011;46574;52.818;6.516;2023-02-18T00:30:51;8.35;;;2.92;;
60722;SDS011;46574;52.818;6.516;2023-02-18T00:33:17;13.07;;;3.90;;
60722;SDS011;46574;52.818;6.516;2023-02-18T00:35:43;11.95;;;3.80;;
60722;SDS011;46574;52.818;6.516;2023-02-18T00:38:08;11.88;;;3.75;;
60722;SDS011;46574;52.818;6.516;2023-02-18T00:40:37;8.85;;;3.47;;
60722;SDS011;46574;52.818;6.516;2023-02-18T00:43:04;12.00;;;3.65;;
60722;SDS011;46574;52.818;6.516;2023-02-18T00:45:30;13.00;;;3.75;;
60722;SDS011;46574;52.818;6.516;2023-02-18T00:47:55;10.52;;;3.78;;
60722;SDS011;46574;52.818;6.516;2023-02-18T00:50:21;10.85;;;4.03;;
60722;SDS011;46574;52.818;6.516;2023-02-18T00:52:47;9.73;;;4.18;;
60722;SDS011;46574;52.818;6.516;2023-02-18T00:55:13;11.55;;;4.85;;
60722;SDS011;46574;52.818;6.516;2023-02-18T00:57:39;14.70;;;5.20;;
60722;SDS011;46574;52.818;6.516;2023-02-18T01:00:05;14.68;;;5.55;;
60722;SDS011;46574;52.818;6.516;2023-02-18T01:02:31;15.68;;;5.75;;
60722;SDS011;46574;52.818;6.516;2023-02-18T01:04:57;14.32;;;6.13;;
60722;SDS011;46574;52.818;6.516;2023-02-18T01:07:23;18.40;;;6.50;;
60722;SDS011;46574;52.818;6.516;2023-02-18T01:09:48;18.63;;;7.05;;
60722;SDS011;46574;52.818;6.516;2023-02-18T01:12:14;18.80;;;7.80;;
60722;SDS011;46574;52.818;6.516;2023-02-18T01:14:40;16.30;;;8.30;;
60722;SDS011;46574;52.818;6.516;2023-02-18T01:17:05;21.83;;;8.95;;
60722;SDS011;46574;52.818;6.516;2023-02-18T01:19:31;22.48;;;9.10;;
60722;SDS011;46574;52.818;6.516;2023-02-18T01:21:57;18.13;;;9.32;;
60722;SDS011;46574;52.818;6.516;2023-02-18T01:24:23;17.13;;;8.98;;
60722;SDS011;46574;52.818;6.516;2023-02-18T01:26:48;19.95;;;8.40;;
60722;SDS011;46574;52.818;6.516;2023-02-18T01:29:14;17.88;;;8.40;;
60722;SDS011;46574;52.818;6.516;2023-02-18T01:31:39;16.83;;;8.13;;
60722;SDS011;46574;52.818;6.516;2023-02-18T01:34:05;17.00;;;8.80;;
60722;SDS011;46574;52.818;6.516;2023-02-18T01:36:31;16.40;;;8.55;;
60722;SDS011;46574;52.818;6.516;2023-02-18T01:38:56;17.38;;;7.47;;
60722;SDS011;46574;52.818;6.516;2023-02-18T01:41:22;16.50;;;7.93;;
60722;SDS011;46574;52.818;6.516;2023-02-18T01:43:48;14.05;;;7.85;;
60722;SDS011;46574;52.818;6.516;2023-02-18T01:46:33;19.08;;;7.93;;
60722;SDS011;46574;52.818;6.516;2023-02-18T01:48:59;21.33;;;7.75;;
60722;SDS011;46574;52.818;6.516;2023-02-18T01:56:41;19.77;;;8.20;;
60722;SDS011;46574;52.818;6.516;2023-02-18T01:59:16;18.27;;;8.48;;
60722;SDS011;46574;52.818;6.516;2023-02-18T02:01:45;15.43;;;7.97;;
60722;SDS011;46574;52.818;6.516;2023-02-18T02:04:11;16.58;;;8.05;;
60722;SDS011;46574;52.818;6.516;2023-02-18T02:06:37;13.88;;;8.40;;
60722;SDS011;46574;52.818;6.516;2023-02-18T02:09:05;21.13;;;9.50;;
60722;SDS011;46574;52.818;6.516;2023-02-18T02:11:38;17.17;;;9.23;;
60722;SDS011;46574;52.818;6.516;2023-02-18T02:17:02;17.10;;;7.82;;
60722;SDS011;46574;52.818;6.516;2023-02-18T02:28:07;18.17;;;8.05;;
60722;SDS011;46574;52.818;6.516;2023-02-18T02:34:14;17.92;;;8.00;;
60722;SDS011;46574;52.818;6.516;2023-02-18T02:37:04;14.75;;;7.40;;
60722;SDS011;46574;52.818;6.516;2023-02-18T02:44:54;14.43;;;7.38;;
60722;SDS011;46574;52.818;6.516;2023-02-18T02:47:31;16.90;;;8.07;;
60722;SDS011;46574;52.818;6.516;2023-02-18T02:52:35;14.45;;;8.07;;
60722;SDS011;46574;52.818;6.516;2023-02-18T02:55:10;16.15;;;7.85;;
60722;SDS011;46574;52.818;6.516;2023-02-18T02:57:41;14.00;;;7.75;;
60722;SDS011;46574;52.818;6.516;2023-02-18T03:00:09;15.73;;;8.88;;
60722;SDS011;46574;52.818;6.516;2023-02-18T03:11:05;26.73;;;14.45;;
60722;SDS011;46574;52.818;6.516;2023-02-18T03:16:26;31.08;;;16.05;;
60722;SDS011;46574;52.818;6.516;2023-02-18T03:19:02;31.83;;;17.17;;
60722;SDS011;46574;52.818;6.516;2023-02-18T03:21:55;38.45;;;18.98;;
60722;SDS011;46574;52.818;6.516;2023-02-18T03:26:58;43.63;;;21.77;;
60722;SDS011;46574;52.818;6.516;2023-02-18T03:29:30;40.97;;;21.95;;
60722;SDS011;46574;52.818;6.516;2023-02-18T03:31:58;47.80;;;23.73;;
60722;SDS011;46574;52.818;6.516;2023-02-18T03:34:30;44.00;;;24.77;;
60722;SDS011;46574;52.818;6.516;2023-02-18T03:37:00;44.33;;;24.15;;
60722;SDS011;46574;52.818;6.516;2023-02-18T03:39:28;42.65;;;26.13;;
60722;SDS011;46574;52.818;6.516;2023-02-18T03:41:56;48.47;;;25.85;;
60722;SDS011;46574;52.818;6.516;2023-02-18T03:44:23;49.60;;;26.55;;
60722;SDS011;46574;52.818;6.516;2023-02-18T03:46:50;48.45;;;25.73;;
60722;SDS011;46574;52.818;6.516;2023-02-18T03:49:16;45.28;;;25.10;;
60722;SDS011;46574;52.818;6.516;2023-02-18T03:51:42;47.20;;;26.35;;
60722;SDS011;46574;52.818;6.516;2023-02-18T03:54:08;48.35;;;26.48;;
60722;SDS011;46574;52.818;6.516;2023-02-18T03:56:35;46.92;;;26.13;;
60722;SDS011;46574;52.818;6.516;2023-02-18T03:59:01;50.67;;;26.08;;
60722;SDS011;46574;52.818;6.516;2023-02-18T04:01:28;51.35;;;25.80;;
60722;SDS011;46574;52.818;6.516;2023-02-18T04:03:54;46.95;;;25.88;;
60722;SDS011;46574;52.818;6.516;2023-02-18T04:06:23;51.72;;;26.75;;
60722;SDS011;46574;52.818;6.516;2023-02-18T04:08:49;50.47;;;26.55;;
60722;SDS011;46574;52.818;6.516;2023-02-18T04:11:14;53.42;;;27.52;;
60722;SDS011;46574;52.818;6.516;2023-02-18T04:13:41;49.67;;;26.40;;
60722;SDS011;46574;52.818;6.516;2023-02-18T04:16:06;54.13;;;27.88;;
60722;SDS011;46574;52.818;6.516;2023-02-18T04:18:32;48.83;;;27.38;;
60722;SDS011;46574;52.818;6.516;2023-02-18T04:20:57;52.90;;;27.38;;
60722;SDS011;46574;52.818;6.516;2023-02-18T04:23:23;52.03;;;27.63;;
60722;SDS011;46574;52.818;6.516;2023-02-18T04:25:49;51.95;;;27.85;;
60722;SDS011;46574;52.818;6.516;2023-02-18T04:28:15;55.85;;;28.48;;
60722;SDS011;46574;52.818;6.516;2023-02-18T04:30:41;61.17;;;29.30;;
60722;SDS011;46574;52.818;6.516;2023-02-18T04:33:11;56.65;;;28.70;;
60722;SDS011;46574;52.818;6.516;2023-02-18T04:35:37;55.42;;;27.08;;
60722;SDS011;46574;52.818;6.516;2023-02-18T04:38:06;60.08;;;27.90;;
60722;SDS011;46574;52.818;6.516;2023-02-18T04:40:32;52.13;;;27.52;;
60722;SDS011;46574;52.818;6.516;2023-02-18T04:42:58;59.13;;;28.42;;
60722;SDS011;46574;52.818;6.516;2023-02-18T04:45:24;57.35;;;27.25;;
60722;SDS011;46574;52.818;6.516;2023-02-18T04:47:50;58.75;;;28.85;;
60722;SDS011;46574;52.818;6.516;2023-02-18T04:50:16;60.40;;;27.42;;
60722;SDS011;46574;52.818;6.516;2023-02-18T04:52:42;70.20;;;29.50;;
60722;SDS011;46574;52.818;6.516;2023-02-18T04:55:08;65.32;;;29.33;;
60722;SDS011;46574;52.818;6.516;2023-02-18T04:57:33;76.22;;;32.42;;
60722;SDS011;46574;52.818;6.516;2023-02-18T04:59:59;70.97;;;30.42;;
60722;SDS011;46574;52.818;6.516;2023-02-18T05:02:25;80.00;;;31.48;;
60722;SDS011;46574;52.818;6.516;2023-02-18T05:04:50;70.78;;;29.95;;
60722;SDS011;46574;52.818;6.516;2023-02-18T05:07:16;78.05;;;31.27;;
60722;SDS011;46574;52.818;6.516;2023-02-18T05:09:42;64.15;;;28.98;;
60722;SDS011;46574;52.818;6.516;2023-02-18T05:12:07;92.80;;;32.65;;
60722;SDS011;46574;52.818;6.516;2023-02-18T05:14:33;84.32;;;32.63;;
60722;SDS011;46574;52.818;6.516;2023-02-18T05:16:59;101.78;;;33.72;;
60722;SDS011;46574;52.818;6.516;2023-02-18T05:19:24;115.05;;;34.72;;
60722;SDS011;46574;52.818;6.516;2023-02-18T05:21:50;102.75;;;35.75;;
60722;SDS011;46574;52.818;6.516;2023-02-18T05:24:15;123.93;;;37.17;;
60722;SDS011;46574;52.818;6.516;2023-02-18T05:26:41;140.15;;;37.58;;
60722;SDS011;46574;52.818;6.516;2023-02-18T05:29:07;96.25;;;31.15;;
60722;SDS011;46574;52.818;6.516;2023-02-18T05:31:33;88.70;;;29.30;;
60722;SDS011;46574;52.818;6.516;2023-02-18T05:33:58;70.47;;;27.67;;
60722;SDS011;46574;52.818;6.516;2023-02-18T05:36:24;76.97;;;25.83;;
60722;SDS011;46574;52.818;6.516;2023-02-18T05:38:50;75.07;;;26.17;;
60722;SDS011;46574;52.818;6.516;2023-02-18T05:41:15;59.92;;;21.70;;
60722;SDS011;46574;52.818;6.516;2023-02-18T05:43:41;55.75;;;19.20;;
60722;SDS011;46574;52.818;6.516;2023-02-18T05:46:25;48.13;;;18.98;;
60722;SDS011;46574;52.818;6.516;2023-02-18T05:48:50;42.53;;;16.50;;
60722;SDS011;46574;52.818;6.516;2023-02-18T05:51:16;44.08;;;16.73;;
60722;SDS011;46574;52.818;6.516;2023-02-18T05:53:42;35.40;;;14.55;;
60722;SDS011;46574;52.818;6.516;2023-02-18T05:56:07;41.42;;;15.55;;
60722;SDS011;46574;52.818;6.516;2023-02-18T05:58:33;35.35;;;13.98;;
60722;SDS011;46574;52.818;6.516;2023-02-18T06:00:59;33.30;;;13.63;;
60722;SDS011;46574;52.818;6.516;2023-02-18T06:03:24;32.05;;;13.68;;
60722;SDS011;46574;52.818;6.516;2023-02-18T06:05:50;27.60;;;11.98;;
60722;SDS011;46574;52.818;6.516;2023-02-18T06:08:17;28.70;;;11.50;;
60722;SDS011;46574;52.818;6.516;2023-02-18T06:10:44;26.90;;;11.10;;
60722;SDS011;46574;52.818;6.516;2023-02-18T06:13:10;24.85;;;10.60;;
60722;SDS011;46574;52.818;6.516;2023-02-18T06:15:36;30.23;;;11.50;;
60722;SDS011;46574;52.818;6.516;2023-02-18T06:18:02;22.73;;;10.65;;
60722;SDS011;46574;52.818;6.516;2023-02-18T06:20:28;20.65;;;10.27;;
60722;SDS011;46574;52.818;6.516;2023-02-18T06:22:54;20.63;;;8.65;;
60722;SDS011;46574;52.818;6.516;2023-02-18T06:25:20;19.20;;;9.00;;
60722;SDS011;46574;52.818;6.516;2023-02-18T06:27:45;20.02;;;9.18;;
60722;SDS011;46574;52.818;6.516;2023-02-18T06:30:11;18.27;;;8.25;;
60722;SDS011;46574;52.818;6.516;2023-02-18T06:32:37;17.83;;;7.72;;
60722;SDS011;46574;52.818;6.516;2023-02-18T06:35:03;18.23;;;7.95;;
60722;SDS011;46574;52.818;6.516;2023-02-18T06:37:28;14.52;;;7.43;;
60722;SDS011;46574;52.818;6.516;2023-02-18T06:39:54;14.63;;;7.70;;
60722;SDS011;46574;52.818;6.516;2023-02-18T06:42:20;13.95;;;7.75;;
60722;SDS011;46574;52.818;6.516;2023-02-18T06:44:45;14.18;;;8.07;;
60722;SDS011;46574;52.818;6.516;2023-02-18T06:47:11;17.05;;;8.43;;
60722;SDS011;46574;52.818;6.516;2023-02-18T06:49:37;14.27;;;8.02;;
60722;SDS011;46574;52.818;6.516;2023-02-18T06:52:03;15.18;;;9.30;;
60722;SDS011;46574;52.818;6.516;2023-02-18T06:54:29;17.13;;;9.20;;
60722;SDS011;46574;52.818;6.516;2023-02-18T06:56:55;18.33;;;10.55;;
60722;SDS011;46574;52.818;6.516;2023-02-18T06:59:20;18.05;;;11.25;;
60722;SDS011;46574;52.818;6.516;2023-02-18T07:01:46;25.58;;;14.02;;
60722;SDS011;46574;52.818;6.516;2023-02-18T07:04:12;23.83;;;14.63;;
60722;SDS011;46574;52.818;6.516;2023-02-18T07:06:37;27.55;;;16.83;;
60722;SDS011;46574;52.818;6.516;2023-02-18T07:09:03;24.67;;;16.15;;
60722;SDS011;46574;52.818;6.516;2023-02-18T07:11:30;29.02;;;18.55;;
60722;SDS011;46574;52.818;6.516;2023-02-18T07:13:55;31.52;;;19.77;;
60722;SDS011;46574;52.818;6.516;2023-02-18T07:16:21;32.70;;;20.50;;
60722;SDS011;46574;52.818;6.516;2023-02-18T07:18:47;31.90;;;20.10;;
60722;SDS011;46574;52.818;6.516;2023-02-18T07:21:12;34.17;;;19.67;;
60722;SDS011;46574;52.818;6.516;2023-02-18T07:23:38;29.63;;;19.42;;
60722;SDS011;46574;52.818;6.516;2023-02-18T07:26:08;30.23;;;19.55;;
60722;SDS011;46574;52.818;6.516;2023-02-18T07:28:35;31.75;;;20.38;;
60722;SDS011;46574;52.818;6.516;2023-02-18T07:31:01;34.20;;;21.55;;
60722;SDS011;46574;52.818;6.516;2023-02-18T07:33:27;33.90;;;21.05;;
60722;SDS011;46574;52.818;6.516;2023-02-18T07:35:53;33.03;;;21.63;;
60722;SDS011;46574;52.818;6.516;2023-02-18T07:38:21;34.15;;;21.67;;
60722;SDS011;46574;52.818;6.516;2023-02-18T07:40:47;33.53;;;19.80;;
60722;SDS011;46574;52.818;6.516;2023-02-18T07:43:13;26.88;;;18.13;;
60722;SDS011;46574;52.818;6.516;2023-02-18T07:45:39;27.33;;;18.40;;
60722;SDS011;46574;52.818;6.516;2023-02-18T07:48:04;26.08;;;16.25;;
60722;SDS011;46574;52.818;6.516;2023-02-18T07:50:30;21.20;;;14.27;;
60722;SDS011;46574;52.818;6.516;2023-02-18T07:53:03;22.63;;;14.00;;
60722;SDS011;46574;52.818;6.516;2023-02-18T07:55:29;23.15;;;13.90;;
60722;SDS011;46574;52.818;6.516;2023-02-18T07:58:13;22.00;;;13.45;;
60722;SDS011;46574;52.818;6.516;2023-02-18T08:00:40;20.98;;;12.73;;
60722;SDS011;46574;52.818;6.516;2023-02-18T08:03:06;17.25;;;11.65;;
60722;SDS011;46574;52.818;6.516;2023-02-18T08:05:31;22.55;;;11.52;;
60722;SDS011;46574;52.818;6.516;2023-02-18T08:07:57;16.58;;;10.80;;
60722;SDS011;46574;52.818;6.516;2023-02-18T08:10:22;20.95;;;11.85;;
60722;SDS011;46574;52.818;6.516;2023-02-18T08:12:48;19.63;;;11.95;;
60722;SDS011;46574;52.818;6.516;2023-02-18T08:15:14;15.00;;;11.13;;
60722;SDS011;46574;52.818;6.516;2023-02-18T08:17:40;16.67;;;10.55;;
60722;SDS011;46574;52.818;6.516;2023-02-18T08:20:06;21.30;;;10.63;;
60722;SDS011;46574;52.818;6.516;2023-02-18T08:22:32;14.93;;;9.48;;
60722;SDS011;46574;52.818;6.516;2023-02-18T08:24:58;16.73;;;9.40;;
60722;SDS011;46574;52.818;6.516;2023-02-18T08:27:23;17.27;;;9.90;;
60722;SDS011;46574;52.818;6.516;2023-02-18T08:29:49;16.35;;;10.05;;
60722;SDS011;46574;52.818;6.516;2023-02-18T08:32:15;16.65;;;10.05;;
60722;SDS011;46574;52.818;6.516;2023-02-18T08:34:40;18.02;;;10.02;;
60722;SDS011;46574;52.818;6.516;2023-02-18T08:37:06;13.32;;;9.43;;
60722;SDS011;46574;52.818;6.516;2023-02-18T08:39:35;15.35;;;9.20;;
60722;SDS011;46574;52.818;6.516;2023-02-18T08:42:01;13.70;;;8.60;;
60722;SDS011;46574;52.818;6.516;2023-02-18T08:44:27;16.92;;;8.82;;
60722;SDS011;46574;52.818;6.516;2023-02-18T08:46:53;15.07;;;8.57;;
60722;SDS011;46574;52.818;6.516;2023-02-18T08:49:18;13.43;;;8.60;;
60722;SDS011;46574;52.818;6.516;2023-02-18T08:51:48;14.00;;;8.57;;
60722;SDS011;46574;52.818;6.516;2023-02-18T08:54:15;12.32;;;7.70;;
60722;SDS011;46574;52.818;6.516;2023-02-18T08:56:41;10.40;;;7.30;;
60722;SDS011;46574;52.818;6.516;2023-02-18T08:59:07;14.13;;;8.30;;
60722;SDS011;46574;52.818;6.516;2023-02-18T09:01:32;11.82;;;8.43;;
60722;SDS011;46574;52.818;6.516;2023-02-18T09:03:58;14.35;;;7.97;;
60722;SDS011;46574;52.818;6.516;2023-02-18T09:06:24;17.25;;;7.90;;
60722;SDS011;46574;52.818;6.516;2023-02-18T09:08:52;10.13;;;7.25;;
60722;SDS011;46574;52.818;6.516;2023-02-18T09:11:18;11.38;;;6.60;;
60722;SDS011;46574;52.818;6.516;2023-02-18T09:13:44;12.98;;;6.88;;
60722;SDS011;46574;52.818;6.516;2023-02-18T09:16:12;12.65;;;6.63;;
60722;SDS011;46574;52.818;6.516;2023-02-18T09:18:39;10.70;;;6.53;;
60722;SDS011;46574;52.818;6.516;2023-02-18T09:21:06;11.20;;;6.63;;
60722;SDS011;46574;52.818;6.516;2023-02-18T09:23:33;12.70;;;6.60;;
60722;SDS011;46574;52.818;6.516;2023-02-18T09:25:59;9.65;;;5.78;;
60722;SDS011;46574;52.818;6.516;2023-02-18T09:28:28;9.60;;;6.13;;
60722;SDS011;46574;52.818;6.516;2023-02-18T09:30:53;11.35;;;6.80;;
60722;SDS011;46574;52.818;6.516;2023-02-18T09:33:19;14.02;;;6.07;;
60722;SDS011;46574;52.818;6.516;2023-02-18T09:35:45;13.98;;;5.70;;
60722;SDS011;46574;52.818;6.516;2023-02-18T09:38:11;12.65;;;6.00;;
60722;SDS011;46574;52.818;6.516;2023-02-18T09:40:41;13.18;;;5.25;;
60722;SDS011;46574;52.818;6.516;2023-02-18T09:44:10;14.18;;;5.90;;
60722;SDS011;46574;52.818;6.516;2023-02-18T09:46:12;13.82;;;5.03;;
60722;SDS011;46574;52.818;6.516;2023-02-18T09:48:53;11.88;;;4.80;;
60722;SDS011;46574;52.818;6.516;2023-02-18T09:51:20;11.65;;;5.13;;
60722;SDS011;46574;52.818;6.516;2023-02-18T09:53:46;10.45;;;5.18;;
60722;SDS011;46574;52.818;6.516;2023-02-18T09:56:17;11.93;;;5.25;;
60722;SDS011;46574;52.818;6.516;2023-02-18T09:58:47;13.43;;;4.97;;
60722;SDS011;46574;52.818;6.516;2023-02-18T10:03:46;11.63;;;4.70;;
60722;SDS011;46574;52.818;6.516;2023-02-18T10:06:16;17.05;;;5.55;;
60722;SDS011;46574;52.818;6.516;2023-02-18T10:08:47;11.70;;;4.80;;
60722;SDS011;46574;52.818;6.516;2023-02-18T10:11:16;12.98;;;5.57;;
60722;SDS011;46574;52.818;6.516;2023-02-18T10:13:45;12.10;;;4.63;;
60722;SDS011;46574;52.818;6.516;2023-02-18T10:16:14;19.08;;;4.95;;
60722;SDS011;46574;52.818;6.516;2023-02-18T10:18:42;13.75;;;4.00;;
60722;SDS011;46574;52.818;6.516;2023-02-18T10:21:34;15.45;;;4.28;;
60722;SDS011;46574;52.818;6.516;2023-02-18T10:26:47;16.83;;;3.70;;
60722;SDS011;46574;52.818;6.516;2023-02-18T10:29:15;11.07;;;3.58;;
60722;SDS011;46574;52.818;6.516;2023-02-18T10:31:53;11.35;;;2.97;;
60722;SDS011;46574;52.818;6.516;2023-02-18T10:40:31;12.27;;;3.13;;
60722;SDS011;46574;52.818;6.516;2023-02-18T10:51:20;13.38;;;3.33;;
60722;SDS011;46574;52.818;6.516;2023-02-18T10:53:50;12.77;;;3.72;;
60722;SDS011;46574;52.818;6.516;2023-02-18T10:56:34;13.60;;;3.78;;
60722;SDS011;46574;52.818;6.516;2023-02-18T10:59:11;12.25;;;3.33;;
60722;SDS011;46574;52.818;6.516;2023-02-18T11:01:55;12.00;;;3.65;;
60722;SDS011;46574;52.818;6.516;2023-02-18T11:04:36;12.77;;;3.45;;
60722;SDS011;46574;52.818;6.516;2023-02-18T11:07:09;14.32;;;3.60;;
60722;SDS011;46574;52.818;6.516;2023-02-18T11:12:13;10.20;;;2.90;;
60722;SDS011;46574;52.818;6.516;2023-02-18T11:14:43;12.02;;;3.13;;
60722;SDS011;46574;52.818;6.516;2023-02-18T11:17:17;11.75;;;3.13;;
60722;SDS011;46574;52.818;6.516;2023-02-18T11:19:51;11.70;;;3.08;;
60722;SDS011;46574;52.818;6.516;2023-02-18T11:22:32;14.05;;;3.58;;
60722;SDS011;46574;52.818;6.516;2023-02-18T11:25:02;11.82;;;3.85;;
60722;SDS011;46574;52.818;6.516;2023-02-18T11:27:43;12.25;;;3.95;;
60722;SDS011;46574;52.818;6.516;2023-02-18T11:32:51;10.60;;;3.42;;
60722;SDS011;46574;52.818;6.516;2023-02-18T11:35:21;11.05;;;3.13;;
60722;SDS011;46574;52.818;6.516;2023-02-18T11:37:49;11.82;;;3.60;;
60722;SDS011;46574;52.818;6.516;2023-02-18T11:40:20;12.10;;;3.30;;
60722;SDS011;46574;52.818;6.516;2023-02-18T11:42:51;10.82;;;3.22;;
60722;SDS011;46574;52.818;6.516;2023-02-18T11:45:32;11.43;;;3.35;;
60722;SDS011;46574;52.818;6.516;2023-02-18T11:48:06;10.18;;;4.18;;
60722;SDS011;46574;52.818;6.516;2023-02-18T11:50:39;11.63;;;3.53;;
60722;SDS011;46574;52.818;6.516;2023-02-18T11:56:04;16.95;;;6.47;;
60722;SDS011;46574;52.818;6.516;2023-02-18T11:58:37;11.55;;;6.32;;
60722;SDS011;46574;52.818;6.516;2023-02-18T12:01:12;11.80;;;3.40;;
60722;SDS011;46574;52.818;6.516;2023-02-18T12:06:38;9.13;;;3.33;;
60722;SDS011;46574;52.818;6.516;2023-02-18T12:09:10;8.93;;;3.25;;
60722;SDS011;46574;52.818;6.516;2023-02-18T12:11:43;8.35;;;2.75;;
60722;SDS011;46574;52.818;6.516;2023-02-18T12:14:15;8.02;;;2.63;;
60722;SDS011;46574;52.818;6.516;2023-02-18T12:22:20;13.25;;;3.50;;
60722;SDS011;46574;52.818;6.516;2023-02-18T12:25:46;6.93;;;3.28;;
60722;SDS011;46574;52.818;6.516;2023-02-18T12:28:11;8.00;;;3.17;;
60722;SDS011;46574;52.818;6.516;2023-02-18T12:42:24;7.47;;;2.97;;
60722;SDS011;46574;52.818;6.516;2023-02-18T12:53:39;7.55;;;2.30;;
60722;SDS011;46574;52.818;6.516;2023-02-18T12:56:40;6.05;;;2.38;;
60722;SDS011;46574;52.818;6.516;2023-02-18T13:02:17;7.95;;;2.83;;
60722;SDS011;46574;52.818;6.516;2023-02-18T13:05:06;6.75;;;2.67;;
60722;SDS011;46574;52.818;6.516;2023-02-18T13:10:41;8.07;;;2.60;;
60722;SDS011;46574;52.818;6.516;2023-02-18T13:13:15;11.48;;;3.35;;
60722;SDS011;46574;52.818;6.516;2023-02-18T13:15:48;5.55;;;2.63;;
60722;SDS011;46574;52.818;6.516;2023-02-18T13:18:22;6.28;;;2.90;;
60722;SDS011;46574;52.818;6.516;2023-02-18T13:20:55;7.40;;;2.80;;
60722;SDS011;46574;52.818;6.516;2023-02-18T13:23:25;6.63;;;3.00;;
60722;SDS011;46574;52.818;6.516;2023-02-18T13:25:57;6.95;;;2.65;;
60722;SDS011;46574;52.818;6.516;2023-02-18T13:28:31;8.75;;;3.03;;
60722;SDS011;46574;52.818;6.516;2023-02-18T13:31:14;8.73;;;3.05;;
60722;SDS011;46574;52.818;6.516;2023-02-18T13:33:50;7.78;;;2.58;;
60722;SDS011;46574;52.818;6.516;2023-02-18T13:39:16;7.97;;;2.78;;
60722;SDS011;46574;52.818;6.516;2023-02-18T13:41:46;8.32;;;2.70;;
60722;SDS011;46574;52.818;6.516;2023-02-18T13:46:49;10.55;;;2.65;;
60722;SDS011;46574;52.818;6.516;2023-02-18T13:49:23;12.25;;;2.90;;
60722;SDS011;46574;52.818;6.516;2023-02-18T13:52:00;7.97;;;2.72;;
60722;SDS011;46574;52.818;6.516;2023-02-18T13:54:28;7.72;;;2.30;;
60722;SDS011;46574;52.818;6.516;2023-02-18T13:57:16;6.60;;;2.20;;
60722;SDS011;46574;52.818;6.516;2023-02-18T13:59:55;8.65;;;2.50;;
60722;SDS011;46574;52.818;6.516;2023-02-18T14:04:53;8.35;;;2.40;;
60722;SDS011;46574;52.818;6.516;2023-02-18T14:10:09;6.28;;;2.80;;
60722;SDS011;46574;52.818;6.516;2023-02-18T14:17:48;12.43;;;2.97;;
60722;SDS011;46574;52.818;6.516;2023-02-18T14:22:46;6.32;;;2.28;;
60722;SDS011;46574;52.818;6.516;2023-02-18T14:27:45;9.05;;;3.35;;
60722;SDS011;46574;52.818;6.516;2023-02-18T14:32:45;8.25;;;2.35;;
60722;SDS011;46574;52.818;6.516;2023-02-18T14:37:50;7.90;;;2.45;;
60722;SDS011;46574;52.818;6.516;2023-02-18T14:43:03;6.28;;;2.50;;
60722;SDS011;46574;52.818;6.516;2023-02-18T14:45:52;8.52;;;2.40;;
60722;SDS011;46574;52.818;6.516;2023-02-18T14:51:18;7.93;;;2.45;;
60722;SDS011;46574;52.818;6.516;2023-02-18T14:53:49;9.75;;;3.30;;
60722;SDS011;46574;52.818;6.516;2023-02-18T14:56:17;8.75;;;2.70;;
60722;SDS011;46574;52.818;6.516;2023-02-18T14:58:45;9.07;;;2.80;;
60722;SDS011;46574;52.818;6.516;2023-02-18T15:01:15;5.55;;;3.08;;
60722;SDS011;46574;52.818;6.516;2023-02-18T15:03:43;9.15;;;2.97;;
60722;SDS011;46574;52.818;6.516;2023-02-18T15:06:23;7.88;;;2.60;;
60722;SDS011;46574;52.818;6.516;2023-02-18T15:09:00;7.63;;;3.15;;
60722;SDS011;46574;52.818;6.516;2023-02-18T15:11:37;8.98;;;3.40;;
60722;SDS011;46574;52.818;6.516;2023-02-18T15:14:49;10.18;;;3.78;;
60722;SDS011;46574;52.818;6.516;2023-02-18T15:16:56;7.50;;;3.42;;
60722;SDS011;46574;52.818;6.516;2023-02-18T15:19:26;9.85;;;4.45;;
60722;SDS011;46574;52.818;6.516;2023-02-18T15:22:00;11.15;;;4.18;;
60722;SDS011;46574;52.818;6.516;2023-02-18T15:24:29;8.95;;;4.55;;
60722;SDS011;46574;52.818;6.516;2023-02-18T15:27:02;12.00;;;3.65;;
60722;SDS011;46574;52.818;6.516;2023-02-18T15:31:59;9.88;;;4.43;;
60722;SDS011;46574;52.818;6.516;2023-02-18T15:36:58;9.15;;;3.20;;
60722;SDS011;46574;52.818;6.516;2023-02-18T15:39:25;7.93;;;3.00;;
60722;SDS011;46574;52.818;6.516;2023-02-18T15:41:54;8.10;;;2.78;;
60722;SDS011;46574;52.818;6.516;2023-02-18T15:44:24;10.27;;;3.95;;
60722;SDS011;46574;52.818;6.516;2023-02-18T15:46:52;11.52;;;4.03;;
60722;SDS011;46574;52.818;6.516;2023-02-18T15:49:19;9.63;;;2.60;;
60722;SDS011;46574;52.818;6.516;2023-02-18T15:54:17;7.97;;;2.67;;
60722;SDS011;46574;52.818;6.516;2023-02-18T15:56:47;11.75;;;2.50;;
60722;SDS011;46574;52.818;6.516;2023-02-18T15:59:34;10.70;;;3.47;;
60722;SDS011;46574;52.818;6.516;2023-02-18T16:04:33;11.38;;;2.67;;
60722;SDS011;46574;52.818;6.516;2023-02-18T16:07:14;10.20;;;3.17;;
60722;SDS011;46574;52.818;6.516;2023-02-18T16:09:45;7.93;;;2.95;;
60722;SDS011;46574;52.818;6.516;2023-02-18T16:12:21;11.23;;;2.72;;
60722;SDS011;46574;52.818;6.516;2023-02-18T16:14:52;17.13;;;4.53;;
60722;SDS011;46574;52.818;6.516;2023-02-18T16:17:21;9.77;;;2.70;;
60722;SDS011;46574;52.818;6.516;2023-02-18T16:19:53;11.73;;;2.88;;
60722;SDS011;46574;52.818;6.516;2023-02-18T16:23:09;10.30;;;3.42;;
60722;SDS011;46574;52.818;6.516;2023-02-18T16:27:48;10.10;;;2.70;;
60722;SDS011;46574;52.818;6.516;2023-02-18T16:30:21;10.63;;;3.03;;
60722;SDS011;46574;52.818;6.516;2023-02-18T16:32:49;7.03;;;2.90;;
60722;SDS011;46574;52.818;6.516;2023-02-18T16:35:16;9.63;;;2.47;;
60722;SDS011;46574;52.818;6.516;2023-02-18T16:37:42;11.52;;;2.58;;
60722;SDS011;46574;52.818;6.516;2023-02-18T16:40:23;10.82;;;3.30;;
60722;SDS011;46574;52.818;6.516;2023-02-18T16:42:56;13.07;;;2.90;;
60722;SDS011;46574;52.818;6.516;2023-02-18T16:45:32;11.35;;;2.95;;
60722;SDS011;46574;52.818;6.516;2023-02-18T16:48:00;9.60;;;3.17;;
60722;SDS011;46574;52.818;6.516;2023-02-18T16:50:26;12.95;;;3.80;;
60722;SDS011;46574;52.818;6.516;2023-02-18T16:52:54;10.70;;;3.40;;
60722;SDS011;46574;52.818;6.516;2023-02-18T16:55:21;10.77;;;2.85;;
60722;SDS011;46574;52.818;6.516;2023-02-18T16:57:48;10.32;;;3.35;;
60722;SDS011;46574;52.818;6.516;2023-02-18T17:00:14;8.52;;;3.00;;
60722;SDS011;46574;52.818;6.516;2023-02-18T17:02:45;11.77;;;4.93;;
60722;SDS011;46574;52.818;6.516;2023-02-18T17:05:21;7.93;;;2.70;;
60722;SDS011;46574;52.818;6.516;2023-02-18T17:07:48;14.80;;;3.60;;
60722;SDS011;46574;52.818;6.516;2023-02-18T17:10:14;17.90;;;3.35;;
60722;SDS011;46574;52.818;6.516;2023-02-18T17:12:40;8.32;;;2.97;;
60722;SDS011;46574;52.818;6.516;2023-02-18T17:15:11;7.85;;;3.03;;